Time;durP1;ratioP1;P1;durP2;ratioP2;P2;SDS_P1;SDS_P2;PMS_P1;PMS_P2;Temp;Humidity;BMP_temperature;BMP_pressure;BME280_temperature;BME280_humidity;BME280_pressure;Samples;Min_cycle;Max_cycle;Signal;HPM_P1;HPM_P2
2021/05/06 00:01:19;;;;;;;1.57;1.00;;;8.90;99.90;;;;;;5011135;28;20221;-64
2021/05/06 00:04:20;;;;;;;3.00;1.70;;;8.80;99.90;;;;;;5032179;28;20229;-64
2021/05/06 00:07:26;;;;;;;6.47;1.63;;;9.00;99.90;;;;;;5031908;28;20229;-63
2021/05/06 00:10:29;;;;;;;2.47;1.20;;;9.00;99.90;;;;;;5031947;28;20217;-65
2021/05/06 00:32:08;;;;;;;4.67;1.70;;;8.80;99.90;;;;;;5032162;28;20309;-64
2021/05/06 00:34:34;;;;;;;3.30;1.87;;;8.80;99.90;;;;;;5031851;28;20226;-64
2021/05/06 00:37:01;;;;;;;2.87;1.60;;;8.80;99.90;;;;;;5032112;28;20210;-64
2021/05/06 00:39:31;;;;;;;2.97;1.50;;;8.80;99.90;;;;;;5032275;28;20213;-64
2021/05/06 00:42:10;;;;;;;4.17;1.43;;;8.70;99.90;;;;;;5031636;28;20206;-63
2021/05/06 00:58:56;;;;;;;4.40;1.77;;;8.90;99.70;;;;;;5010521;28;20303;-64
2021/05/06 01:07:10;;;;;;;3.03;1.57;;;8.90;99.80;;;;;;5029039;28;20239;-64
2021/05/06 01:09:41;;;;;;;3.93;1.53;;;8.90;99.90;;;;;;5031219;28;20210;-64
2021/05/06 01:12:08;;;;;;;1.80;1.40;;;8.90;99.90;;;;;;5031113;28;20570;-65
2021/05/06 01:14:34;;;;;;;1.80;1.13;;;9.10;99.80;;;;;;5033594;28;20226;-65
2021/05/06 01:17:01;;;;;;;2.13;1.30;;;9.10;99.30;;;;;;5034996;28;20210;-65
2021/05/06 01:19:27;;;;;;;3.37;1.40;;;9.10;99.00;;;;;;5035009;28;20606;-65
2021/05/06 01:21:55;;;;;;;4.03;1.57;;;8.90;99.30;;;;;;5034951;28;20206;-65
2021/05/06 01:24:21;;;;;;;1.63;1.30;;;9.00;99.10;;;;;;5034641;28;20238;-65
2021/05/06 01:26:54;;;;;;;1.40;1.30;;;9.10;98.90;;;;;;5034993;28;20258;-65
2021/05/06 01:29:24;;;;;;;1.70;1.27;;;9.10;98.70;;;;;;5034922;28;20244;-65
2021/05/06 01:31:54;;;;;;;2.80;1.40;;;9.10;98.80;;;;;;5035166;28;20213;-65
2021/05/06 01:34:22;;;;;;;4.50;2.13;;;9.10;98.80;;;;;;5034728;28;20233;-64
2021/05/06 01:36:52;;;;;;;4.10;1.70;;;9.10;99.10;;;;;;5034721;28;20206;-65
2021/05/06 01:39:46;;;;;;;3.83;1.70;;;9.10;99.00;;;;;;5034631;28;20296;-65
2021/05/06 01:42:14;;;;;;;2.43;1.40;;;9.10;99.00;;;;;;5034090;28;20226;-65
2021/05/06 01:45:10;;;;;;;1.70;1.30;;;9.10;98.90;;;;;;5033906;28;20218;-64
2021/05/06 01:47:38;;;;;;;2.63;1.60;;;9.20;98.70;;;;;;5033891;28;20313;-65
2021/05/06 01:50:33;;;;;;;2.43;1.23;;;9.10;98.60;;;;;;5033997;28;20199;-64
2021/05/06 01:58:36;;;;;;;1.40;1.03;;;9.20;98.40;;;;;;5033754;28;20205;-65
2021/05/06 02:01:05;;;;;;;2.50;1.17;;;9.10;98.80;;;;;;5033866;28;20670;-65
2021/05/06 02:03:31;;;;;;;4.83;1.80;;;9.20;98.80;;;;;;5033993;28;20706;-65
2021/05/06 02:05:58;;;;;;;3.83;1.30;;;9.30;98.70;;;;;;5034791;28;20206;-65
2021/05/06 02:08:24;;;;;;;3.10;1.57;;;9.30;98.90;;;;;;5034094;28;20226;-65
2021/05/06 02:10:55;;;;;;;3.30;1.47;;;9.30;98.90;;;;;;5034148;28;20434;-65
2021/05/06 02:13:21;;;;;;;3.27;1.50;;;9.20;98.80;;;;;;5034667;28;20280;-65
2021/05/06 02:15:53;;;;;;;3.13;1.57;;;9.20;99.00;;;;;;5033550;28;20207;-65
2021/05/06 02:18:20;;;;;;;2.57;1.10;;;9.00;99.10;;;;;;5033465;28;20264;-65
2021/05/06 02:20:48;;;;;;;3.07;1.23;;;9.10;98.90;;;;;;5033291;28;20206;-65
2021/05/06 02:23:14;;;;;;;3.00;1.40;;;9.20;98.80;;;;;;5032970;28;20336;-64
2021/05/06 02:25:40;;;;;;;3.67;1.30;;;9.00;98.90;;;;;;5033214;28;20203;-65
2021/05/06 02:28:07;;;;;;;2.17;1.30;;;9.10;98.90;;;;;;5033041;28;20226;-64
2021/05/06 02:30:34;;;;;;;5.47;1.40;;;9.10;98.40;;;;;;5033093;28;20202;-65
2021/05/06 02:33:02;;;;;;;5.70;1.43;;;9.10;98.10;;;;;;5032889;28;20276;-65
2021/05/06 02:35:28;;;;;;;2.03;1.50;;;9.20;97.90;;;;;;5033058;28;20353;-64
2021/05/06 02:37:54;;;;;;;3.13;1.43;;;9.10;97.60;;;;;;5032950;28;20261;-64
2021/05/06 02:40:20;;;;;;;2.53;1.43;;;9.20;97.70;;;;;;5033074;28;20217;-64
2021/05/06 02:42:47;;;;;;;4.07;1.57;;;9.20;97.30;;;;;;5032926;28;20494;-64
2021/05/06 02:45:14;;;;;;;4.77;2.03;;;8.90;97.50;;;;;;5032822;28;20217;-65
2021/05/06 02:47:41;;;;;;;3.57;1.67;;;8.90;98.10;;;;;;5032472;28;20229;-64
2021/05/06 02:50:11;;;;;;;3.40;1.33;;;8.70;98.70;;;;;;5032958;28;20213;-65
2021/05/06 02:52:42;;;;;;;2.00;1.40;;;8.80;98.70;;;;;;5032748;28;20220;-65
2021/05/06 02:55:13;;;;;;;3.60;1.73;;;8.80;98.80;;;;;;5032928;28;20234;-65
2021/05/06 02:57:41;;;;;;;5.23;1.50;;;8.70;99.00;;;;;;5035256;28;20198;-65
2021/05/06 03:02:55;;;;;;;11.43;1.90;;;8.70;99.10;;;;;;5035549;28;20225;-67
2021/05/06 03:05:24;;;;;;;4.50;2.27;;;8.80;99.20;;;;;;5035266;28;20697;-64
2021/05/06 03:07:59;;;;;;;4.83;2.07;;;8.80;99.20;;;;;;5033672;28;20226;-65
2021/05/06 03:10:36;;;;;;;4.43;1.70;;;8.70;99.40;;;;;;5034037;28;20209;-65
2021/05/06 03:13:31;;;;;;;4.73;1.70;;;8.60;99.50;;;;;;5032765;28;20222;-66
2021/05/06 03:24:15;;;;;;;4.23;1.97;;;8.90;99.30;;;;;;5032062;28;20248;-64
2021/05/06 03:26:41;;;;;;;6.87;2.50;;;9.00;99.30;;;;;;5032260;28;20221;-64
2021/05/06 03:29:11;;;;;;;3.47;1.70;;;9.20;99.10;;;;;;5031889;28;20206;-64
2021/05/06 03:31:52;;;;;;;3.57;1.70;;;9.30;98.90;;;;;;5031923;28;20217;-63
2021/05/06 03:42:36;;;;;;;6.73;1.83;;;9.50;98.90;;;;;;5031903;28;20201;-64
2021/05/06 03:45:17;;;;;;;3.97;2.00;;;9.50;98.90;;;;;;5032141;28;20482;-63
2021/05/06 03:51:07;;;;;;;4.23;2.23;;;9.40;99.20;;;;;;5031963;28;20198;-64
2021/05/06 04:16:01;;;;;;;6.83;2.57;;;9.30;97.90;;;;;;5031286;28;20612;-63
2021/05/06 04:18:29;;;;;;;16.43;7.87;;;9.20;98.20;;;;;;5031747;28;20226;-65
2021/05/06 04:26:34;;;;;;;2.80;1.83;;;9.50;98.00;;;;;;5031372;28;20209;-63
2021/05/06 04:37:30;;;;;;;5.80;3.57;;;9.60;97.90;;;;;;4989182;28;20754;-65
2021/05/06 04:40:00;;;;;;;2.57;1.63;;;9.60;98.00;;;;;;4989239;28;20773;-63
2021/05/06 04:53:33;;;;;;;5.77;3.10;;;9.60;98.40;;;;;;4996664;28;20227;-64
2021/05/06 04:56:09;;;;;;;3.77;2.70;;;9.70;98.40;;;;;;5035430;28;20210;-65
2021/05/06 04:58:56;;;;;;;4.27;2.87;;;9.70;98.40;;;;;;5035103;28;20654;-64
2021/05/06 05:04:12;;;;;;;4.50;1.97;;;10.30;97.00;;;;;;5036321;28;20252;-64
2021/05/06 05:06:41;;;;;;;3.17;1.57;;;10.60;96.70;;;;;;5035561;28;20233;-64
2021/05/06 05:09:23;;;;;;;3.20;1.80;;;10.90;96.10;;;;;;5034951;28;20222;-64
2021/05/06 05:11:53;;;;;;;4.20;2.13;;;11.10;95.60;;;;;;5034963;28;20225;-66
2021/05/06 05:14:35;;;;;;;2.70;1.70;;;11.30;95.40;;;;;;5034563;28;20230;-63
2021/05/06 05:20:02;;;;;;;3.00;1.77;;;11.60;94.60;;;;;;5034491;28;20205;-65
2021/05/06 05:25:15;;;;;;;3.20;1.40;;;11.70;94.20;;;;;;5034531;28;20260;-64
2021/05/06 05:27:42;;;;;;;2.23;1.67;;;11.50;94.30;;;;;;5034338;28;20225;-65
2021/05/06 05:30:10;;;;;;;4.47;1.83;;;11.60;94.20;;;;;;5034531;28;20218;-65
2021/05/06 05:32:36;;;;;;;7.10;1.60;;;12.00;94.30;;;;;;5035197;28;20283;-65
2021/05/06 05:35:06;;;;;;;3.40;1.80;;;12.70;93.30;;;;;;5035390;28;20398;-64
2021/05/06 05:37:36;;;;;;;2.63;1.50;;;14.00;91.20;;;;;;5034885;28;20592;-64
2021/05/06 05:40:12;;;;;;;3.17;1.70;;;15.00;88.60;;;;;;5034448;28;20210;-67
2021/05/06 05:42:47;;;;;;;3.50;1.60;;;15.40;85.80;;;;;;5034194;28;20190;-65
2021/05/06 05:56:07;;;;;;;4.50;1.60;;;14.80;84.30;;;;;;5033988;28;20320;-65
2021/05/06 05:58:33;;;;;;;3.13;1.63;;;14.60;84.60;;;;;;5033588;28;20592;-63
2021/05/06 06:01:00;;;;;;;5.67;1.77;;;14.30;85.50;;;;;;5033589;28;20208;-64
2021/05/06 06:03:26;;;;;;;4.13;1.30;;;14.00;85.80;;;;;;5033729;28;20296;-64
2021/05/06 06:05:53;;;;;;;3.93;1.80;;;13.90;86.10;;;;;;5033792;28;20271;-64
2021/05/06 06:08:23;;;;;;;3.67;1.33;;;13.60;86.90;;;;;;5033323;28;20226;-64
2021/05/06 06:10:49;;;;;;;3.27;1.50;;;13.40;87.50;;;;;;5033759;28;20227;-64
2021/05/06 06:13:15;;;;;;;2.30;1.20;;;13.30;87.90;;;;;;5033542;28;20233;-64
2021/05/06 06:15:53;;;;;;;4.37;1.60;;;13.10;87.60;;;;;;5033073;28;20236;-65
2021/05/06 06:18:24;;;;;;;4.17;1.30;;;12.90;88.20;;;;;;5033093;28;20212;-64
2021/05/06 06:20:58;;;;;;;4.00;1.43;;;12.80;88.00;;;;;;5033386;28;20202;-64
2021/05/06 06:23:27;;;;;;;4.30;1.70;;;12.80;88.00;;;;;;5033079;28;20234;-64
2021/05/06 06:25:53;;;;;;;4.77;2.00;;;12.60;88.30;;;;;;5033347;28;20214;-63
2021/05/06 06:28:19;;;;;;;3.47;2.00;;;12.50;88.30;;;;;;5033265;28;20222;-63
2021/05/06 06:30:46;;;;;;;3.77;1.60;;;12.30;88.50;;;;;;5033889;28;20202;-63
2021/05/06 06:33:12;;;;;;;4.13;1.87;;;12.10;89.30;;;;;;5034056;28;20313;-64
2021/05/06 06:35:39;;;;;;;4.60;2.00;;;12.00;90.00;;;;;;5033966;28;20578;-63
2021/05/06 06:38:05;;;;;;;4.87;2.30;;;11.90;90.40;;;;;;5033740;28;20198;-65
2021/05/06 06:40:32;;;;;;;5.97;1.90;;;11.70;91.10;;;;;;5033446;28;20245;-63
2021/05/06 06:42:58;;;;;;;9.70;2.60;;;11.60;91.70;;;;;;5032975;28;20226;-64
2021/05/06 06:45:24;;;;;;;8.47;2.00;;;11.40;92.40;;;;;;5032623;28;20268;-64
2021/05/06 06:47:54;;;;;;;6.20;1.87;;;11.40;92.80;;;;;;5032802;28;20223;-64
2021/05/06 06:50:21;;;;;;;6.63;2.10;;;11.40;93.40;;;;;;5032602;28;20608;-65
2021/05/06 06:52:48;;;;;;;5.80;2.00;;;11.30;93.90;;;;;;5032640;28;20227;-64
2021/05/06 06:55:15;;;;;;;5.27;2.03;;;11.40;94.10;;;;;;5032308;28;20210;-64
2021/05/06 06:57:41;;;;;;;5.13;2.07;;;11.40;94.50;;;;;;5032193;28;20198;-64
2021/05/06 07:00:08;;;;;;;3.40;1.80;;;11.50;94.50;;;;;;5032218;28;20716;-64
2021/05/06 07:02:35;;;;;;;3.87;1.70;;;11.40;94.80;;;;;;5032508;28;20202;-63
2021/05/06 07:05:01;;;;;;;5.93;2.30;;;11.40;95.20;;;;;;5032275;28;20213;-64
2021/05/06 07:07:27;;;;;;;6.43;2.90;;;11.40;95.10;;;;;;5032225;28;20226;-64
2021/05/06 07:09:54;;;;;;;6.33;4.93;;;11.40;95.20;;;;;;5032162;28;20210;-64
2021/05/06 07:12:20;;;;;;;5.77;3.00;;;11.40;95.60;;;;;;5031545;28;20213;-63
2021/05/06 07:14:47;;;;;;;6.60;3.70;;;11.40;95.70;;;;;;5031731;28;20206;-63
2021/05/06 07:17:13;;;;;;;5.20;2.07;;;11.40;95.60;;;;;;5032279;28;20212;-64
2021/05/06 07:19:39;;;;;;;4.60;2.20;;;11.40;95.70;;;;;;5032722;28;20210;-64
2021/05/06 07:22:05;;;;;;;3.97;2.00;;;11.40;95.70;;;;;;5033011;28;20297;-63
2021/05/06 07:24:32;;;;;;;6.17;2.33;;;11.40;95.90;;;;;;5032433;28;20714;-64
2021/05/06 07:26:59;;;;;;;5.10;1.80;;;11.40;96.20;;;;;;5032429;28;20212;-64
2021/05/06 07:29:26;;;;;;;4.47;2.30;;;11.40;96.30;;;;;;5033284;28;20233;-64
2021/05/06 07:31:53;;;;;;;4.00;2.17;;;11.40;96.60;;;;;;5032961;28;20206;-64
2021/05/06 07:34:19;;;;;;;5.93;2.37;;;11.40;96.40;;;;;;5033015;28;20601;-63
2021/05/06 07:36:46;;;;;;;5.93;2.00;;;11.50;96.40;;;;;;5031821;28;20202;-64
2021/05/06 07:39:12;;;;;;;3.00;2.00;;;11.40;96.40;;;;;;5031708;28;20209;-64
2021/05/06 07:41:38;;;;;;;5.17;2.00;;;11.50;96.70;;;;;;5031840;28;20206;-63
2021/05/06 07:44:07;;;;;;;6.37;2.10;;;11.40;96.40;;;;;;5032074;28;20234;-63
2021/05/06 07:46:33;;;;;;;4.30;2.10;;;11.60;96.20;;;;;;5032101;28;20209;-64
2021/05/06 07:48:59;;;;;;;4.43;2.00;;;11.60;96.10;;;;;;5032315;28;20284;-63
2021/05/06 07:51:26;;;;;;;4.03;2.53;;;11.70;96.30;;;;;;5032031;28;20213;-64
2021/05/06 07:53:53;;;;;;;6.83;2.17;;;11.70;96.20;;;;;;5031714;28;20252;-63
2021/05/06 07:56:20;;;;;;;2.77;1.73;;;11.60;96.00;;;;;;5031949;28;20256;-64
2021/05/06 07:58:47;;;;;;;5.87;2.40;;;11.60;96.20;;;;;;5031921;28;20747;-65
2021/05/06 08:01:14;;;;;;;8.67;2.60;;;11.70;96.40;;;;;;5032164;28;20396;-63
2021/05/06 08:03:41;;;;;;;4.70;2.00;;;11.80;96.30;;;;;;5032194;28;20328;-63
2021/05/06 08:06:07;;;;;;;3.23;1.97;;;11.70;96.20;;;;;;5032119;28;20206;-64
2021/05/06 08:08:33;;;;;;;6.63;2.10;;;12.10;96.00;;;;;;5032163;28;20710;-63
2021/05/06 08:11:00;;;;;;;6.00;2.10;;;12.30;95.20;;;;;;5031874;28;20233;-63
2021/05/06 08:13:28;;;;;;;8.10;1.90;;;12.60;95.00;;;;;;5031898;28;20227;-64
2021/05/06 08:15:55;;;;;;;3.83;2.00;;;12.80;94.80;;;;;;5031722;28;20217;-65
2021/05/06 08:18:23;;;;;;;5.17;1.90;;;13.00;94.60;;;;;;5031459;28;20712;-65
2021/05/06 08:20:49;;;;;;;5.63;2.03;;;13.10;94.10;;;;;;5031717;28;20206;-65
2021/05/06 08:23:15;;;;;;;5.17;2.27;;;13.30;93.30;;;;;;5031068;28;20261;-64
2021/05/06 08:25:41;;;;;;;7.97;2.40;;;13.30;93.20;;;;;;5031115;28;20210;-64
2021/05/06 08:28:08;;;;;;;11.17;2.33;;;13.40;92.50;;;;;;5031531;28;20226;-64
2021/05/06 08:30:35;;;;;;;3.50;1.87;;;13.50;92.60;;;;;;5031642;28;20202;-64
2021/05/06 08:33:02;;;;;;;7.10;2.40;;;13.60;91.70;;;;;;5031419;28;20729;-64
2021/05/06 08:35:29;;;;;;;4.70;1.60;;;13.70;91.90;;;;;;5031519;28;20658;-64
2021/05/06 08:37:55;;;;;;;4.10;2.10;;;13.70;91.20;;;;;;5030935;28;20716;-62
2021/05/06 08:40:22;;;;;;;5.13;2.30;;;13.70;91.00;;;;;;5031222;28;20221;-62
2021/05/06 08:42:51;;;;;;;4.73;2.20;;;13.60;91.00;;;;;;5030950;28;20627;-61
2021/05/06 08:45:17;;;;;;;6.17;2.90;;;13.50;91.00;;;;;;5031270;28;20210;-64
2021/05/06 08:47:45;;;;;;;6.20;2.10;;;13.40;91.10;;;;;;5030972;28;20251;-62
2021/05/06 08:50:11;;;;;;;7.80;2.30;;;13.40;91.30;;;;;;5031164;28;20209;-64
2021/05/06 08:52:41;;;;;;;6.50;2.53;;;13.40;91.20;;;;;;5028789;28;20445;-61
2021/05/06 08:55:08;;;;;;;10.10;2.20;;;13.50;90.80;;;;;;5030064;28;20621;-62
2021/05/06 08:57:34;;;;;;;4.63;1.93;;;13.20;91.30;;;;;;5030632;28;20228;-65
2021/05/06 09:00:01;;;;;;;4.53;1.90;;;13.30;91.40;;;;;;5030876;28;20280;-65
2021/05/06 09:02:27;;;;;;;8.27;2.33;;;13.40;91.20;;;;;;5030607;28;20210;-63
2021/05/06 09:04:53;;;;;;;5.83;2.50;;;13.40;91.10;;;;;;5030229;28;20805;-61
2021/05/06 09:07:21;;;;;;;9.27;2.70;;;13.30;91.00;;;;;;5030412;28;20207;-64
2021/05/06 09:09:50;;;;;;;8.37;2.77;;;13.30;91.30;;;;;;5010711;28;20207;-63
2021/05/06 09:12:33;;;;;;;8.53;2.70;;;13.40;91.20;;;;;;5010420;28;20256;-63
2021/05/06 09:15:08;;;;;;;9.27;2.03;;;13.40;91.00;;;;;;5010885;28;20257;-65
2021/05/06 09:17:35;;;;;;;7.90;1.50;;;13.30;90.80;;;;;;5010166;28;20207;-63
2021/05/06 09:20:10;;;;;;;4.80;1.80;;;13.20;90.80;;;;;;5010306;28;20226;-61
2021/05/06 09:22:38;;;;;;;4.60;2.40;;;13.10;90.90;;;;;;5010617;28;20675;-59
2021/05/06 09:25:31;;;;;;;3.50;1.77;;;13.20;90.90;;;;;;5041666;22;20230;-63
2021/05/06 09:28:05;;;;;;;8.13;2.43;;;13.40;90.80;;;;;;5030153;28;20663;-61
2021/05/06 09:30:33;;;;;;;5.00;2.47;;;13.40;90.50;;;;;;5030329;28;20252;-61
2021/05/06 09:33:03;;;;;;;6.20;2.83;;;13.30;90.50;;;;;;5030141;28;20207;-62
2021/05/06 09:35:30;;;;;;;4.90;1.70;;;13.40;90.30;;;;;;5032455;28;20308;-62
2021/05/06 09:37:56;;;;;;;4.43;2.17;;;13.40;90.40;;;;;;5033862;28;20297;-61
2021/05/06 09:40:22;;;;;;;5.07;1.97;;;13.50;90.60;;;;;;5033803;28;20202;-62
2021/05/06 09:42:52;;;;;;;4.47;2.20;;;13.50;90.50;;;;;;5033536;28;20206;-62
2021/05/06 09:45:22;;;;;;;9.43;2.43;;;13.60;90.40;;;;;;5032863;28;20670;-62
2021/05/06 09:48:10;;;;;;;6.23;2.03;;;13.60;90.40;;;;;;5033063;28;20311;-62
2021/05/06 09:50:37;;;;;;;4.97;1.83;;;13.70;90.40;;;;;;5033549;28;20264;-62
2021/05/06 09:53:11;;;;;;;5.10;2.00;;;13.80;90.40;;;;;;5033227;28;20207;-62
2021/05/06 09:55:38;;;;;;;4.93;2.10;;;13.90;90.20;;;;;;5033098;28;20209;-62
2021/05/06 09:58:15;;;;;;;7.07;2.57;;;13.90;90.00;;;;;;5033122;28;20233;-62
2021/05/06 10:00:42;;;;;;;5.53;2.30;;;13.90;90.00;;;;;;5033240;28;20681;-62
2021/05/06 10:03:12;;;;;;;8.60;2.60;;;13.90;90.00;;;;;;5033617;28;20206;-62
2021/05/06 10:05:40;;;;;;;8.10;3.57;;;13.90;89.50;;;;;;5032923;28;20700;-62
2021/05/06 10:08:06;;;;;;;4.93;2.47;;;13.90;89.30;;;;;;5033096;28;20600;-62
2021/05/06 10:10:35;;;;;;;3.37;1.80;;;13.90;89.30;;;;;;5033172;28;20614;-63
2021/05/06 10:13:02;;;;;;;5.20;2.00;;;13.90;89.50;;;;;;5033141;28;20207;-63
2021/05/06 10:15:29;;;;;;;5.30;2.20;;;13.90;89.40;;;;;;5033450;28;20202;-61
2021/05/06 10:17:55;;;;;;;4.77;2.00;;;14.00;89.40;;;;;;5032976;28;20226;-62
2021/05/06 10:20:24;;;;;;;6.07;2.33;;;14.10;89.50;;;;;;5032991;28;20210;-62
2021/05/06 10:22:51;;;;;;;5.87;2.67;;;14.10;89.00;;;;;;5032663;28;20210;-62
2021/05/06 10:25:20;;;;;;;5.73;2.47;;;14.20;88.40;;;;;;5032630;28;20514;-62
2021/05/06 10:27:47;;;;;;;5.40;2.40;;;14.20;88.40;;;;;;5032738;28;20253;-64
2021/05/06 10:30:14;;;;;;;6.47;3.60;;;14.30;87.90;;;;;;5032937;28;20206;-62
2021/05/06 10:32:42;;;;;;;4.73;2.00;;;14.40;87.70;;;;;;5032657;28;20222;-62
2021/05/06 10:35:11;;;;;;;4.73;1.83;;;14.30;87.30;;;;;;5032843;28;20306;-62
2021/05/06 10:37:39;;;;;;;5.27;2.50;;;14.30;87.40;;;;;;5032862;28;20233;-63
2021/05/06 10:40:25;;;;;;;7.13;2.20;;;14.30;87.90;;;;;;5032781;28;20214;-62
2021/05/06 10:42:53;;;;;;;4.00;1.90;;;14.20;87.60;;;;;;5032733;28;20251;-63
2021/05/06 10:45:34;;;;;;;3.43;2.00;;;14.20;87.80;;;;;;5032738;28;20246;-63
2021/05/06 10:48:02;;;;;;;5.37;2.17;;;14.20;88.60;;;;;;5032916;28;20757;-63
2021/05/06 10:50:36;;;;;;;4.47;2.33;;;14.10;88.70;;;;;;5032734;28;20206;-63
2021/05/06 10:53:04;;;;;;;3.97;2.33;;;14.10;89.00;;;;;;5032702;28;20628;-61
2021/05/06 10:55:42;;;;;;;7.00;2.60;;;14.00;89.10;;;;;;5030432;28;20445;-61
2021/05/06 10:58:33;;;;;;;5.73;2.57;;;13.90;89.40;;;;;;5031803;28;20202;-63
2021/05/06 11:01:16;;;;;;;7.30;2.20;;;14.00;89.70;;;;;;5032832;28;20210;-62
2021/05/06 11:03:43;;;;;;;14.33;4.03;;;14.00;90.00;;;;;;5025228;28;20230;-61
2021/05/06 11:06:33;;;;;;;4.77;2.30;;;14.00;90.10;;;;;;5013316;28;20207;-60
2021/05/06 11:08:59;;;;;;;7.37;2.70;;;14.00;90.40;;;;;;5013175;28;20231;-60
2021/05/06 11:11:26;;;;;;;7.03;2.50;;;14.10;90.60;;;;;;5012920;28;20215;-61
2021/05/06 11:14:06;;;;;;;5.97;2.20;;;14.20;90.70;;;;;;5011946;28;20277;-61
2021/05/06 11:16:34;;;;;;;5.17;2.00;;;14.20;91.00;;;;;;5012271;28;20199;-61
2021/05/06 11:19:01;;;;;;;7.90;2.20;;;14.30;91.50;;;;;;5012211;28;20213;-64
2021/05/06 11:21:36;;;;;;;4.50;2.13;;;14.10;91.50;;;;;;5012593;28;20203;-63
2021/05/06 11:24:17;;;;;;;5.27;2.00;;;14.00;91.80;;;;;;5011723;28;20274;-63
2021/05/06 11:27:13;;;;;;;7.97;2.03;;;14.10;92.10;;;;;;5011778;28;20211;-63
2021/05/06 11:29:41;;;;;;;6.10;2.47;;;14.20;92.00;;;;;;5011641;28;20233;-63
2021/05/06 11:32:20;;;;;;;8.03;2.10;;;14.40;92.00;;;;;;5011660;28;20214;-63
2021/05/06 11:34:50;;;;;;;6.87;2.00;;;14.50;92.10;;;;;;5011420;28;20231;-63
2021/05/06 11:37:26;;;;;;;5.07;2.20;;;14.50;91.40;;;;;;5011814;28;20211;-64
2021/05/06 11:39:58;;;;;;;4.63;1.93;;;14.50;91.50;;;;;;5011391;28;20675;-64
2021/05/06 11:42:27;;;;;;;5.93;2.17;;;14.60;91.30;;;;;;5011473;28;20207;-64
2021/05/06 11:45:11;;;;;;;2.60;1.90;;;14.60;91.30;;;;;;5011030;28;20557;-63
2021/05/06 11:47:38;;;;;;;4.03;1.70;;;14.80;91.20;;;;;;5010839;28;20207;-63
2021/05/06 11:50:36;;;;;;;4.07;2.10;;;14.70;90.90;;;;;;5011571;28;20210;-63
2021/05/06 11:53:03;;;;;;;6.63;2.10;;;14.70;91.20;;;;;;5011260;28;20743;-64
2021/05/06 11:55:36;;;;;;;3.53;2.43;;;14.70;90.80;;;;;;5011394;28;20206;-64
2021/05/06 11:58:03;;;;;;;3.83;1.70;;;14.60;90.50;;;;;;5010349;28;20206;-61
2021/05/06 12:00:31;;;;;;;1.83;0.90;;;14.60;90.00;;;;;;5011652;28;20211;-64
2021/05/06 12:02:58;;;;;;;2.43;1.80;;;14.70;89.60;;;;;;5011176;28;20620;-64
2021/05/06 12:05:52;;;;;;;3.43;1.53;;;14.80;88.90;;;;;;5011345;28;20261;-64
2021/05/06 12:08:20;;;;;;;1.97;1.10;;;14.80;88.10;;;;;;5010888;28;20227;-64
2021/05/06 12:10:46;;;;;;;1.73;1.00;;;14.80;88.00;;;;;;5010672;28;20301;-62
2021/05/06 12:13:13;;;;;;;1.53;1.10;;;14.70;87.80;;;;;;5011169;28;20324;-64
2021/05/06 12:15:40;;;;;;;1.63;1.23;;;14.70;88.60;;;;;;5010928;28;20210;-64
2021/05/06 12:18:17;;;;;;;3.53;1.27;;;14.60;88.20;;;;;;5010912;28;20269;-64
2021/05/06 12:20:55;;;;;;;4.23;2.73;;;14.60;88.30;;;;;;5010805;28;20646;-63
2021/05/06 12:23:23;;;;;;;2.80;1.10;;;14.60;88.70;;;;;;5010607;28;20297;-64
2021/05/06 12:25:50;;;;;;;2.30;1.33;;;14.60;88.30;;;;;;5010897;28;20211;-64
2021/05/06 12:28:17;;;;;;;1.73;1.30;;;14.50;88.20;;;;;;5010892;28;20593;-63
2021/05/06 12:30:43;;;;;;;3.23;1.70;;;14.50;88.60;;;;;;5011031;28;20203;-63
2021/05/06 12:33:09;;;;;;;4.67;3.10;;;14.40;89.30;;;;;;5010696;28;20668;-63
2021/05/06 12:35:49;;;;;;;2.30;1.30;;;14.40;90.70;;;;;;5010589;28;20210;-62
2021/05/06 12:38:16;;;;;;;1.53;1.43;;;14.40;91.00;;;;;;5010887;28;20241;-62
2021/05/06 12:40:42;;;;;;;5.67;1.80;;;14.50;91.00;;;;;;5010512;28;20234;-63
2021/05/06 12:43:27;;;;;;;3.30;1.40;;;14.60;91.60;;;;;;5010746;28;20260;-61
2021/05/06 12:46:01;;;;;;;3.60;1.50;;;14.70;91.70;;;;;;5010524;28;20213;-60
2021/05/06 12:48:45;;;;;;;2.40;1.87;;;14.90;91.80;;;;;;5010499;28;20226;-62
2021/05/06 12:51:14;;;;;;;2.53;1.80;;;15.00;91.60;;;;;;5011380;28;20679;-62
2021/05/06 12:54:05;;;;;;;2.33;1.30;;;15.20;91.90;;;;;;5011022;28;20454;-62
2021/05/06 12:56:33;;;;;;;3.60;1.63;;;15.30;92.00;;;;;;5011963;28;20655;-62
2021/05/06 12:59:23;;;;;;;2.30;1.40;;;15.40;92.10;;;;;;5010519;28;20771;-66
2021/05/06 13:01:50;;;;;;;2.97;1.50;;;15.40;92.10;;;;;;5010144;28;20206;-62
2021/05/06 13:04:17;;;;;;;3.23;2.00;;;15.40;92.10;;;;;;5018228;28;20258;-63
2021/05/06 13:06:43;;;;;;;4.10;1.80;;;15.20;92.10;;;;;;5009848;28;20217;-60
2021/05/06 13:09:15;;;;;;;1.93;1.40;;;15.10;92.90;;;;;;5010302;28;20231;-64
2021/05/06 13:11:42;;;;;;;2.60;1.37;;;15.00;92.90;;;;;;5013864;28;20207;-61
2021/05/06 13:14:08;;;;;;;3.17;1.50;;;15.00;92.20;;;;;;5014028;28;20227;-61
2021/05/06 13:16:37;;;;;;;2.20;1.53;;;15.00;92.40;;;;;;5014335;28;20214;-62
2021/05/06 13:19:05;;;;;;;2.17;1.50;;;15.00;92.80;;;;;;5013736;28;20799;-62
2021/05/06 13:21:32;;;;;;;3.60;1.40;;;14.90;93.00;;;;;;5013605;28;20211;-61
2021/05/06 13:24:01;;;;;;;3.73;2.10;;;14.80;93.20;;;;;;5014243;28;20235;-63
2021/05/06 13:26:32;;;;;;;2.67;1.50;;;14.70;93.30;;;;;;5014405;28;20207;-61
2021/05/06 13:29:00;;;;;;;2.13;1.50;;;14.60;93.70;;;;;;5013863;28;20223;-60
2021/05/06 13:31:32;;;;;;;2.10;1.47;;;14.50;93.60;;;;;;5014478;28;20207;-61
2021/05/06 13:34:14;;;;;;;3.13;1.63;;;14.50;94.40;;;;;;5013976;28;20669;-61
2021/05/06 13:36:42;;;;;;;2.40;1.47;;;14.40;95.10;;;;;;5014227;28;20214;-61
2021/05/06 13:39:10;;;;;;;3.53;1.40;;;14.40;95.50;;;;;;5014210;28;20211;-60
2021/05/06 13:41:39;;;;;;;1.67;1.27;;;14.30;95.90;;;;;;5013974;28;20203;-61
2021/05/06 13:44:07;;;;;;;1.50;1.30;;;14.30;96.20;;;;;;5013616;28;20230;-61
2021/05/06 13:46:42;;;;;;;3.77;2.30;;;14.20;96.80;;;;;;5013805;28;20214;-61
2021/05/06 13:49:08;;;;;;;5.67;2.57;;;14.20;97.20;;;;;;5014268;28;20222;-61
2021/05/06 13:51:34;;;;;;;3.40;2.03;;;14.00;97.50;;;;;;5013860;28;20234;-62
2021/05/06 13:54:01;;;;;;;2.30;1.73;;;13.90;97.80;;;;;;5013915;28;20235;-62
2021/05/06 13:56:27;;;;;;;2.83;1.70;;;14.00;97.80;;;;;;5013179;28;20211;-60
2021/05/06 13:58:54;;;;;;;2.97;1.37;;;14.10;97.60;;;;;;5012930;28;20207;-62
2021/05/06 14:01:22;;;;;;;3.20;1.50;;;14.20;97.30;;;;;;5013726;28;20218;-61
2021/05/06 14:03:48;;;;;;;1.83;1.40;;;14.20;97.70;;;;;;5013691;28;20231;-61
2021/05/06 14:06:14;;;;;;;1.90;1.33;;;14.40;97.10;;;;;;5014270;28;20218;-62
2021/05/06 14:08:40;;;;;;;2.73;1.50;;;14.40;96.90;;;;;;5013108;28;20302;-63
2021/05/06 14:11:07;;;;;;;2.97;1.57;;;14.40;96.90;;;;;;5013769;28;20287;-61
2021/05/06 14:13:34;;;;;;;3.23;1.57;;;14.50;97.10;;;;;;5013908;28;20648;-61
2021/05/06 14:16:01;;;;;;;2.17;1.40;;;14.50;96.80;;;;;;5014055;28;20207;-61
2021/05/06 14:18:28;;;;;;;2.47;1.97;;;14.60;97.10;;;;;;5013453;28;20239;-61
2021/05/06 14:21:00;;;;;;;2.00;1.70;;;14.70;97.10;;;;;;5013368;28;20877;-61
2021/05/06 14:23:27;;;;;;;1.67;1.53;;;14.70;97.00;;;;;;5012870;28;20265;-60
2021/05/06 14:25:53;;;;;;;3.60;2.00;;;14.60;97.30;;;;;;5013107;28;20306;-60
2021/05/06 14:28:19;;;;;;;3.90;2.23;;;14.60;97.40;;;;;;5013511;28;20233;-60
2021/05/06 14:30:45;;;;;;;3.57;1.70;;;14.60;97.50;;;;;;5013431;28;20225;-60
2021/05/06 14:33:12;;;;;;;2.17;1.47;;;14.60;97.60;;;;;;5013615;28;20203;-60
2021/05/06 14:35:39;;;;;;;3.43;1.80;;;14.50;98.60;;;;;;5014653;28;20207;-60
2021/05/06 14:38:07;;;;;;;4.10;1.60;;;14.30;98.70;;;;;;5015019;28;20199;-64
2021/05/06 14:40:33;;;;;;;3.30;1.70;;;14.30;99.30;;;;;;5015551;28;20235;-61
2021/05/06 14:43:00;;;;;;;2.07;1.40;;;14.30;99.60;;;;;;5015520;28;20211;-64
2021/05/06 14:45:26;;;;;;;3.63;1.53;;;14.10;98.40;;;;;;5012990;28;20582;-61
2021/05/06 14:47:52;;;;;;;2.40;1.70;;;14.10;98.80;;;;;;5013282;28;20210;-62
2021/05/06 14:50:19;;;;;;;1.90;1.37;;;14.00;98.90;;;;;;5013218;28;20706;-61
2021/05/06 14:52:45;;;;;;;1.97;1.50;;;13.90;99.20;;;;;;5013312;28;20207;-61
2021/05/06 14:55:13;;;;;;;2.03;1.40;;;13.90;99.50;;;;;;5012981;28;20296;-62
2021/05/06 14:57:40;;;;;;;2.40;1.60;;;14.00;99.50;;;;;;5013370;28;20265;-62
2021/05/06 15:00:08;;;;;;;2.30;2.10;;;14.00;99.50;;;;;;5013029;28;20242;-62
2021/05/06 15:02:35;;;;;;;2.17;1.37;;;13.90;99.80;;;;;;5013141;28;20207;-60
2021/05/06 15:05:01;;;;;;;3.07;1.40;;;13.90;99.90;;;;;;5012893;28;20713;-61
2021/05/06 15:07:28;;;;;;;1.83;1.60;;;13.80;99.90;;;;;;5013093;28;20257;-61
2021/05/06 15:09:54;;;;;;;1.87;1.57;;;13.80;99.90;;;;;;5012832;28;20344;-61
2021/05/06 15:12:21;;;;;;;4.90;1.47;;;13.80;99.90;;;;;;5013048;28;20683;-62
2021/05/06 15:14:47;;;;;;;2.03;1.30;;;13.70;99.90;;;;;;5012954;28;20227;-62
2021/05/06 15:17:13;;;;;;;3.73;2.30;;;13.70;99.90;;;;;;5012846;28;20214;-60